createdAt,value
2019-05-16T00:02:28.456Z,9.30
2019-05-16T00:04:59.223Z,9.30
2019-05-16T00:07:28.703Z,9.20
2019-05-16T00:09:59.052Z,9.30
2019-05-16T00:12:29.139Z,9.20
2019-05-16T00:14:59.775Z,9.20
2019-05-16T00:17:29.363Z,9.20
2019-05-16T00:19:59.009Z,9.20
2019-05-16T00:22:28.832Z,9.20
2019-05-16T00:24:58.234Z,9.20
2019-05-16T00:27:28.032Z,9.20
2019-05-16T00:29:58.259Z,9.20
2019-05-16T00:32:28.854Z,9.30
2019-05-16T00:34:58.473Z,9.30
2019-05-16T00:37:28.710Z,9.30
2019-05-16T00:39:58.830Z,9.30
2019-05-16T00:42:28.627Z,9.30
2019-05-16T00:44:58.517Z,9.30
2019-05-16T00:47:28.498Z,9.30
2019-05-16T00:49:58.323Z,9.30
2019-05-16T00:52:28.818Z,9.40
2019-05-16T00:54:58.706Z,9.40
2019-05-16T00:57:28.813Z,9.40
2019-05-16T00:59:59.875Z,9.40
2019-05-16T01:02:29.843Z,9.50
2019-05-16T01:04:59.198Z,9.50
2019-05-16T01:07:28.475Z,9.50
2019-05-16T01:09:58.310Z,9.50
2019-05-16T01:12:28.484Z,9.50
2019-05-16T01:14:59.159Z,9.50
2019-05-16T01:17:29.504Z,9.50
2019-05-16T01:19:59.090Z,9.50
2019-05-16T01:22:29.075Z,9.50
2019-05-16T01:24:58.615Z,9.40
2019-05-16T01:27:28.326Z,9.50
2019-05-16T01:29:58.441Z,9.40
2019-05-16T01:32:31.827Z,9.40
2019-05-16T01:34:58.975Z,9.40
2019-05-16T01:37:29.366Z,9.50
2019-05-16T01:39:58.838Z,9.40
2019-05-16T01:42:28.193Z,9.50
2019-05-16T01:44:57.912Z,9.40
2019-05-16T01:47:28.839Z,9.40
2019-05-16T01:49:58.217Z,9.50
2019-05-16T01:52:29.070Z,9.50
2019-05-16T01:54:58.921Z,9.50
2019-05-16T01:57:28.434Z,9.50
2019-05-16T01:59:58.975Z,9.50
2019-05-16T02:02:29.013Z,9.50
2019-05-16T02:04:59.384Z,9.60
2019-05-16T02:07:28.661Z,9.60
2019-05-16T02:09:58.340Z,9.60
2019-05-16T02:12:27.931Z,9.60
2019-05-16T02:14:58.760Z,9.60
2019-05-16T02:17:28.916Z,9.60
2019-05-16T02:19:58.344Z,9.60
2019-05-16T02:22:28.514Z,9.60
2019-05-16T02:24:58.507Z,9.70
2019-05-16T02:27:29.095Z,9.70
2019-05-16T02:30:00.026Z,9.70
2019-05-16T02:32:31.228Z,9.70
2019-05-16T02:35:01.348Z,9.70
2019-05-16T02:37:34.863Z,9.60
2019-05-16T02:40:01.979Z,9.70
2019-05-16T02:42:32.646Z,9.70
2019-05-16T02:45:02.709Z,9.70
2019-05-16T02:47:34.998Z,9.70
2019-05-16T02:50:05.178Z,9.60
2019-05-16T02:52:34.858Z,9.70
2019-05-16T02:55:05.087Z,9.60
2019-05-16T02:57:34.381Z,9.60
2019-05-16T03:00:05.577Z,9.60
2019-05-16T03:02:34.909Z,9.60
2019-05-16T03:05:05.818Z,9.60
2019-05-16T03:07:41.558Z,9.70
2019-05-16T03:10:10.932Z,9.70
2019-05-16T03:12:41.123Z,9.70
2019-05-16T03:15:11.123Z,9.70
2019-05-16T03:17:44.054Z,9.80
2019-05-16T03:20:14.128Z,9.70
2019-05-16T03:22:44.482Z,9.70
2019-05-16T03:25:13.764Z,9.70
2019-05-16T03:27:43.184Z,9.60
2019-05-16T03:30:16.405Z,9.60
2019-05-16T03:32:45.716Z,9.60
2019-05-16T03:35:16.840Z,9.70
2019-05-16T03:37:55.839Z,9.70
2019-05-16T03:40:31.303Z,9.70
2019-05-16T03:43:01.425Z,9.70
2019-05-16T03:45:31.986Z,9.70
2019-05-16T03:48:02.868Z,9.70
2019-05-16T03:50:32.701Z,9.70
2019-05-16T03:53:02.042Z,9.70
2019-05-16T03:55:32.408Z,9.70
2019-05-16T03:58:03.332Z,9.70
2019-05-16T04:00:52.338Z,9.70
2019-05-16T04:03:21.520Z,9.70
2019-05-16T04:05:52.662Z,9.70
2019-05-16T04:08:25.148Z,9.80
2019-05-16T04:10:53.358Z,9.80
2019-05-16T04:13:22.660Z,9.70
2019-05-16T04:15:53.046Z,9.70
2019-05-16T04:18:23.516Z,9.70
2019-05-16T04:20:53.183Z,9.70
2019-05-16T04:23:22.499Z,9.60
2019-05-16T04:25:53.220Z,9.60
2019-05-16T04:28:23.507Z,9.60
2019-05-16T04:30:53.285Z,9.60
2019-05-16T04:33:22.805Z,9.60
2019-05-16T04:35:53.040Z,9.60
2019-05-16T04:38:35.142Z,9.60
2019-05-16T04:40:54.048Z,9.60
2019-05-16T04:43:23.333Z,9.70
2019-05-16T04:45:52.965Z,9.70
2019-05-16T04:48:23.113Z,9.70
2019-05-16T04:50:52.887Z,9.70
2019-05-16T04:53:22.262Z,9.80
2019-05-16T04:55:52.361Z,9.80
2019-05-16T04:58:23.602Z,9.80
2019-05-16T05:00:53.193Z,9.80
2019-05-16T05:03:22.956Z,9.90
2019-05-16T05:05:52.277Z,9.80
2019-05-16T05:08:22.513Z,9.90
2019-05-16T05:10:52.301Z,9.90
2019-05-16T05:13:23.087Z,9.80
2019-05-16T05:15:52.679Z,9.80
2019-05-16T05:18:22.325Z,9.80
2019-05-16T05:20:52.771Z,9.70
2019-05-16T05:23:22.541Z,9.70
2019-05-16T05:25:51.937Z,9.70
2019-05-16T05:28:21.553Z,9.60
2019-05-16T05:30:51.351Z,9.60
2019-05-16T05:33:21.372Z,9.60
2019-05-16T05:35:51.288Z,9.60
2019-05-16T05:38:21.662Z,9.70
2019-05-16T05:40:52.178Z,9.70
2019-05-16T05:43:21.989Z,9.80
2019-05-16T05:45:52.399Z,9.80
2019-05-16T05:48:22.138Z,9.80
2019-05-16T05:50:51.854Z,9.90
2019-05-16T05:53:21.292Z,9.90
2019-05-16T05:55:51.751Z,9.90
2019-05-16T05:58:21.604Z,9.90
2019-05-16T06:00:52.135Z,10.00
2019-05-16T06:03:23.283Z,10.00
2019-05-16T06:05:52.934Z,10.10
2019-05-16T06:08:22.219Z,10.20
2019-05-16T06:10:51.519Z,10.20
2019-05-16T06:13:21.146Z,10.30
2019-05-16T06:15:51.338Z,10.30
2019-05-16T06:18:20.830Z,10.30
2019-05-16T06:20:51.343Z,10.40
2019-05-16T06:23:21.171Z,10.40
2019-05-16T06:25:51.066Z,10.50
2019-05-16T06:28:21.293Z,10.60
2019-05-16T06:30:51.804Z,10.50
2019-05-16T06:33:21.797Z,10.40
2019-05-16T06:35:51.600Z,10.40
2019-05-16T06:38:21.397Z,10.40
2019-05-16T06:40:52.770Z,10.40
2019-05-16T06:43:21.901Z,10.40
2019-05-16T06:45:51.708Z,10.40
2019-05-16T06:48:21.634Z,10.40
2019-05-16T06:50:51.945Z,10.40
2019-05-16T06:53:21.468Z,10.50
2019-05-16T06:55:50.838Z,10.50
2019-05-16T06:58:22.269Z,10.50
2019-05-16T07:00:52.343Z,10.50
2019-05-16T07:03:22.079Z,10.50
2019-05-16T07:05:51.382Z,10.50
2019-05-16T07:08:21.517Z,10.50
2019-05-16T07:10:51.173Z,10.40
2019-05-16T07:13:20.694Z,10.40
2019-05-16T07:15:50.486Z,10.40
2019-05-16T07:18:21.253Z,10.30
2019-05-16T07:20:51.493Z,10.30
2019-05-16T07:23:21.360Z,10.20
2019-05-16T07:25:50.988Z,10.30
2019-05-16T07:28:21.207Z,10.30
2019-05-16T07:30:51.719Z,10.30
2019-05-16T07:33:21.550Z,10.30
2019-05-16T07:35:51.457Z,10.40
2019-05-16T07:38:21.053Z,10.40
2019-05-16T07:40:51.078Z,10.40
2019-05-16T07:43:22.189Z,10.60
2019-05-16T07:45:51.753Z,10.70
2019-05-16T07:48:22.274Z,10.70
2019-05-16T07:50:52.641Z,10.70
2019-05-16T07:53:22.375Z,10.60
2019-05-16T07:55:51.676Z,11.00
2019-05-16T07:58:22.119Z,11.00
2019-05-16T08:01:02.126Z,11.00
2019-05-16T08:03:22.947Z,11.00
2019-05-16T08:05:52.246Z,10.90
2019-05-16T08:08:24.252Z,10.90
2019-05-16T08:10:52.801Z,10.90
2019-05-16T08:13:22.401Z,10.80
2019-05-16T08:15:51.705Z,10.70
2019-05-16T08:18:21.609Z,10.70
2019-05-16T08:20:52.489Z,10.80
2019-05-16T08:23:22.918Z,10.90
2019-05-16T08:25:52.342Z,11.00
2019-05-16T08:28:22.082Z,11.00
2019-05-16T08:30:53.177Z,11.00
2019-05-16T08:33:22.891Z,11.00
2019-05-16T08:35:52.460Z,11.10
2019-05-16T08:38:22.047Z,11.20
2019-05-16T08:41:08.028Z,11.10
2019-05-16T08:43:22.746Z,11.10
2019-05-16T08:45:52.165Z,11.10
2019-05-16T08:50:54.556Z,11.20
2019-05-16T08:53:23.871Z,11.20
2019-05-16T08:55:53.194Z,11.10
2019-05-16T08:58:23.073Z,11.10
2019-05-16T09:00:55.964Z,11.20
2019-05-16T09:03:23.882Z,11.20
2019-05-16T09:05:53.908Z,11.30
2019-05-16T09:08:23.239Z,11.40
2019-05-16T09:10:31.814Z,11.10
2019-05-16T09:11:15.913Z,11.30
2019-05-16T09:13:23.557Z,11.40
2019-05-16T09:15:53.152Z,11.60
2019-05-16T09:18:22.437Z,11.70
2019-05-16T09:20:51.772Z,11.70
2019-05-16T09:23:21.047Z,11.70
2019-05-16T09:25:51.241Z,11.80
2019-05-16T09:28:20.606Z,12.00
2019-05-16T09:30:49.904Z,12.40
2019-05-16T09:33:19.260Z,12.50
2019-05-16T09:35:48.563Z,12.60
2019-05-16T09:38:23.160Z,12.70
2019-05-16T09:40:48.850Z,12.80
2019-05-16T09:43:18.313Z,12.80
2019-05-16T09:45:48.051Z,12.80
2019-05-16T09:48:18.955Z,12.80
2019-05-16T09:50:49.537Z,12.90
2019-05-16T09:53:18.829Z,12.90
2019-05-16T09:55:48.513Z,13.00
2019-05-16T09:58:18.682Z,13.00
2019-05-16T10:00:48.344Z,13.10
2019-05-16T10:03:22.322Z,13.20
2019-05-16T10:05:48.804Z,13.10
2019-05-16T10:08:18.114Z,13.10
2019-05-16T10:10:47.398Z,13.00
2019-05-16T10:13:18.259Z,12.90
2019-05-16T10:15:47.982Z,12.80
2019-05-16T10:18:17.275Z,12.90
2019-05-16T10:20:46.847Z,12.90
2019-05-16T10:23:18.105Z,13.00
2019-05-16T10:25:47.897Z,13.20
2019-05-16T10:28:20.164Z,13.30
2019-05-16T10:30:50.066Z,13.50
2019-05-16T10:33:20.030Z,13.50
2019-05-16T10:35:49.641Z,13.80
2019-05-16T10:38:18.944Z,13.90
2019-05-16T10:40:48.634Z,13.90
2019-05-16T10:43:17.935Z,14.00
2019-05-16T10:45:47.545Z,13.80
2019-05-16T10:48:17.721Z,13.80
2019-05-16T10:50:47.892Z,13.90
2019-05-16T10:53:43.042Z,13.90
2019-05-16T10:55:49.897Z,14.00
2019-05-16T10:58:35.645Z,14.20
2019-05-16T11:01:17.859Z,14.40
2019-05-16T11:03:23.781Z,14.50
2019-05-16T11:06:02.889Z,14.70
2019-05-16T11:08:24.296Z,14.70
2019-05-16T11:10:53.605Z,14.90
2019-05-16T11:13:22.979Z,15.30
2019-05-16T11:15:52.297Z,15.40
2019-05-16T11:18:21.610Z,15.30
2019-05-16T11:20:50.901Z,15.30
2019-05-16T11:23:23.302Z,15.30
2019-05-16T11:25:54.716Z,15.50
2019-05-16T11:28:22.617Z,15.50
2019-05-16T11:30:52.047Z,15.60
2019-05-16T11:33:21.483Z,15.60
2019-05-16T11:35:50.790Z,15.60
2019-05-16T11:38:20.057Z,15.70
2019-05-16T11:40:49.346Z,15.70
2019-05-16T11:43:21.678Z,15.40
2019-05-16T11:45:50.030Z,15.40
2019-05-16T11:48:19.321Z,15.50
2019-05-16T11:50:48.934Z,15.50
2019-05-16T11:53:18.675Z,15.20
2019-05-16T11:55:55.483Z,15.10
2019-05-16T11:58:19.304Z,15.10
2019-05-16T12:00:48.738Z,15.10
2019-05-16T12:03:18.068Z,15.30
2019-05-16T12:05:48.473Z,15.50
2019-05-16T12:08:18.948Z,15.50
2019-05-16T12:10:48.554Z,15.50
2019-05-16T12:13:28.211Z,15.40
2019-05-16T12:15:49.136Z,15.40
2019-05-16T12:18:18.523Z,15.40
2019-05-16T12:20:47.818Z,15.50
2019-05-16T12:23:17.341Z,15.70
2019-05-16T12:25:47.643Z,15.90
2019-05-16T12:28:17.363Z,15.90
2019-05-16T12:30:47.189Z,15.90
2019-05-16T12:33:18.683Z,15.50
2019-05-16T12:35:47.754Z,15.30
2019-05-16T12:38:17.363Z,15.40
2019-05-16T12:40:48.020Z,15.40
2019-05-16T12:43:18.250Z,15.40
2019-05-16T12:45:47.611Z,15.40
2019-05-16T12:48:20.263Z,15.40
2019-05-16T12:50:48.398Z,15.40
2019-05-16T12:53:17.758Z,15.70
2019-05-16T12:55:47.667Z,15.90
2019-05-16T12:58:24.867Z,16.00
2019-05-16T13:00:57.760Z,15.90
2019-05-16T13:03:20.192Z,15.90
2019-05-16T13:05:49.494Z,15.90
2019-05-16T13:08:19.063Z,15.90
2019-05-16T13:10:48.385Z,16.10
2019-05-16T13:13:18.022Z,16.00
2019-05-16T13:15:47.851Z,16.20
2019-05-16T13:18:17.240Z,16.30
2019-05-16T13:20:46.974Z,15.90
2019-05-16T13:23:18.281Z,15.60
2019-05-16T13:25:48.309Z,15.50
2019-05-16T13:28:18.001Z,15.30
2019-05-16T13:30:47.391Z,15.00
2019-05-16T13:33:17.755Z,14.90
2019-05-16T13:35:47.535Z,14.90
2019-05-16T13:38:17.665Z,14.90
2019-05-16T13:40:48.129Z,14.90
2019-05-16T13:43:20.328Z,14.80
2019-05-16T13:45:49.690Z,14.50
2019-05-16T13:48:19.971Z,14.40
2019-05-16T13:50:50.335Z,14.20
2019-05-16T13:53:19.625Z,14.00
2019-05-16T13:55:49.209Z,13.80
2019-05-16T13:58:18.492Z,13.90
2019-05-16T14:00:48.161Z,14.20
2019-05-16T14:03:18.059Z,14.20
2019-05-16T14:05:47.880Z,14.20
2019-05-16T14:08:17.566Z,14.20
2019-05-16T14:10:48.793Z,14.20
2019-05-16T14:13:18.308Z,14.20
2019-05-16T14:15:47.611Z,14.30
2019-05-16T14:18:17.636Z,14.20
2019-05-16T14:20:47.126Z,13.90
2019-05-16T14:23:17.567Z,13.50
2019-05-16T14:25:48.424Z,13.40
2019-05-16T14:28:17.935Z,13.40
2019-05-16T14:30:47.592Z,13.50
2019-05-16T14:33:17.314Z,13.50
2019-05-16T14:35:47.271Z,13.50
2019-05-16T14:38:17.603Z,13.60
2019-05-16T14:40:50.176Z,13.60
2019-05-16T14:43:18.488Z,13.50
2019-05-16T14:45:47.866Z,13.50
2019-05-16T14:48:18.472Z,13.40
2019-05-16T14:50:47.945Z,13.40
2019-05-16T14:53:17.985Z,13.20
2019-05-16T14:55:48.565Z,13.20
2019-05-16T14:58:18.220Z,13.10
2019-05-16T15:00:49.007Z,13.10
2019-05-16T15:03:19.292Z,13.10
2019-05-16T15:05:48.920Z,13.00
2019-05-16T15:08:18.421Z,12.70
2019-05-16T15:10:47.714Z,12.60
2019-05-16T15:13:17.660Z,12.70
2019-05-16T15:15:47.418Z,12.60
2019-05-16T15:18:17.769Z,12.50
2019-05-16T15:20:47.539Z,12.50
2019-05-16T15:23:17.542Z,12.50
2019-05-16T15:25:47.116Z,12.50
2019-05-16T15:28:17.221Z,12.60
2019-05-16T15:30:47.079Z,12.60
2019-05-16T15:33:19.706Z,12.60
2019-05-16T15:35:47.557Z,12.40
2019-05-16T15:38:16.843Z,12.20
2019-05-16T15:40:48.135Z,12.10
2019-05-16T15:43:18.568Z,12.10
2019-05-16T15:45:52.759Z,12.00
2019-05-16T15:48:19.311Z,12.00
2019-05-16T15:50:48.583Z,12.10
2019-05-16T15:53:18.173Z,12.10
2019-05-16T15:55:47.717Z,12.20
2019-05-16T15:58:18.592Z,12.10
2019-05-16T16:00:49.722Z,12.10
2019-05-16T16:03:19.688Z,12.10
2019-05-16T16:05:49.117Z,12.20
2019-05-16T16:08:18.664Z,12.20
2019-05-16T16:10:48.193Z,12.20
2019-05-16T16:13:19.917Z,12.40
2019-05-16T16:15:54.106Z,12.40
2019-05-16T16:18:21.754Z,12.50
2019-05-16T16:20:50.534Z,12.50
2019-05-16T16:23:20.146Z,12.50
2019-05-16T16:25:51.106Z,12.50
2019-05-16T16:28:20.984Z,12.50
2019-05-16T16:30:50.324Z,12.60
2019-05-16T16:33:25.792Z,12.50
2019-05-16T16:35:51.069Z,12.50
2019-05-16T16:38:20.390Z,12.50
2019-05-16T16:40:49.652Z,12.60
2019-05-16T16:43:19.270Z,12.60
2019-05-16T16:45:48.577Z,12.50
2019-05-16T16:48:18.194Z,12.60
2019-05-16T16:50:47.550Z,12.70
2019-05-16T16:53:17.614Z,12.80
2019-05-16T16:55:47.728Z,12.90
2019-05-16T16:58:17.699Z,12.90
2019-05-16T17:00:47.870Z,12.90
2019-05-16T17:03:17.563Z,12.90
2019-05-16T17:05:46.853Z,13.00
2019-05-16T17:08:17.239Z,12.90
2019-05-16T17:10:47.680Z,12.90
2019-05-16T17:13:17.211Z,12.90
2019-05-16T17:15:47.304Z,12.90
2019-05-16T17:18:17.392Z,12.90
2019-05-16T17:20:47.680Z,13.00
2019-05-16T17:23:17.551Z,12.90
2019-05-16T17:25:47.308Z,12.80
2019-05-16T17:28:17.568Z,12.70
2019-05-16T17:30:48.270Z,12.60
2019-05-16T17:33:18.375Z,12.50
2019-05-16T17:35:48.978Z,12.50
2019-05-16T17:38:18.520Z,12.50
2019-05-16T17:40:47.818Z,12.50
2019-05-16T17:43:19.559Z,12.40
2019-05-16T17:45:48.842Z,12.40
2019-05-16T17:48:18.169Z,12.40
2019-05-16T17:50:47.645Z,12.30
2019-05-16T17:53:17.468Z,12.40
2019-05-16T17:55:47.275Z,12.40
2019-05-16T17:58:16.947Z,12.40
2019-05-16T18:00:47.351Z,12.40
2019-05-16T18:03:17.535Z,12.40
2019-05-16T18:05:47.628Z,12.30
2019-05-16T18:08:17.086Z,12.20
2019-05-16T18:10:47.134Z,12.20
2019-05-16T18:13:16.665Z,12.10
2019-05-16T18:15:47.409Z,12.00
2019-05-16T18:18:17.666Z,12.00
2019-05-16T18:20:55.886Z,12.00
2019-05-16T18:23:18.297Z,12.00
2019-05-16T18:25:47.608Z,12.00
2019-05-16T18:28:17.578Z,12.00
2019-05-16T18:30:47.393Z,11.80
2019-05-16T18:33:17.161Z,11.70
2019-05-16T18:35:47.258Z,11.70
2019-05-16T18:38:16.761Z,11.60
2019-05-16T18:40:47.394Z,11.50
2019-05-16T18:43:17.239Z,11.40
2019-05-16T18:45:47.330Z,11.50
2019-05-16T18:48:17.791Z,11.50
2019-05-16T18:50:47.712Z,11.40
2019-05-16T18:53:17.838Z,11.40
2019-05-16T18:55:47.228Z,11.30
2019-05-16T18:58:18.041Z,11.20
2019-05-16T19:00:47.613Z,11.10
2019-05-16T19:03:16.988Z,11.10
2019-05-16T19:05:46.689Z,11.10
2019-05-16T19:08:16.420Z,11.10
2019-05-16T19:10:47.350Z,11.00
2019-05-16T19:13:18.041Z,11.00
2019-05-16T19:15:49.336Z,10.90
2019-05-16T19:18:18.856Z,10.90
2019-05-16T19:20:48.865Z,10.90
2019-05-16T19:23:18.605Z,10.80
2019-05-16T19:25:48.351Z,10.80
2019-05-16T19:28:17.647Z,10.80
2019-05-16T19:30:47.172Z,10.80
2019-05-16T19:33:17.405Z,10.90
2019-05-16T19:35:48.947Z,10.90
2019-05-16T19:38:19.270Z,10.90
2019-05-16T19:40:48.566Z,10.70
2019-05-16T19:43:18.176Z,10.70
2019-05-16T19:45:47.455Z,10.70
2019-05-16T19:48:17.446Z,10.70
2019-05-16T19:50:47.004Z,10.70
2019-05-16T19:53:16.574Z,10.70
2019-05-16T19:55:47.072Z,10.70
2019-05-16T19:58:16.750Z,10.70
2019-05-16T20:00:46.589Z,10.70
2019-05-16T20:03:16.641Z,10.70
2019-05-16T20:05:47.768Z,10.70
2019-05-16T20:08:17.601Z,10.70
2019-05-16T20:10:47.709Z,10.70
2019-05-16T20:13:17.366Z,10.70
2019-05-16T20:15:47.717Z,10.70
2019-05-16T20:18:18.486Z,10.70
2019-05-16T20:20:47.949Z,10.60
2019-05-16T20:23:18.745Z,10.60
2019-05-16T20:25:48.187Z,10.50
2019-05-16T20:28:18.391Z,10.60
2019-05-16T20:30:48.198Z,10.60
2019-05-16T20:33:18.100Z,10.50
2019-05-16T20:35:47.511Z,10.50
2019-05-16T20:38:17.346Z,10.50
2019-05-16T20:40:47.039Z,10.50
2019-05-16T20:43:16.867Z,10.50
2019-05-16T20:45:47.854Z,10.50
2019-05-16T20:48:18.486Z,10.50
2019-05-16T20:50:49.231Z,10.50
2019-05-16T20:53:19.011Z,10.60
2019-05-16T20:55:49.634Z,10.60
2019-05-16T20:58:19.320Z,10.60
2019-05-16T21:00:49.836Z,10.50
2019-05-16T21:03:20.334Z,10.50
2019-05-16T21:05:50.906Z,10.40
2019-05-16T21:08:20.697Z,10.40
2019-05-16T21:10:49.978Z,10.40
2019-05-16T21:13:19.453Z,10.40
2019-05-16T21:15:49.029Z,10.30
2019-05-16T21:18:18.309Z,10.30
2019-05-16T21:20:47.599Z,10.30
2019-05-16T21:23:19.477Z,10.30
2019-05-16T21:25:48.125Z,10.30
2019-05-16T21:28:19.870Z,10.30
2019-05-16T21:30:48.460Z,10.30
2019-05-16T21:33:18.683Z,10.20
2019-05-16T21:35:48.115Z,10.20
2019-05-16T21:38:17.392Z,10.10
2019-05-16T21:40:46.953Z,10.10
2019-05-16T21:43:17.309Z,10.00
2019-05-16T21:45:47.450Z,10.00
2019-05-16T21:48:19.404Z,10.00
2019-05-16T21:50:47.923Z,10.00
2019-05-16T21:53:17.819Z,9.90
2019-05-16T21:55:47.556Z,9.90
2019-05-16T21:58:17.164Z,9.90
2019-05-16T22:00:49.042Z,9.80
2019-05-16T22:03:19.306Z,9.80
2019-05-16T22:05:48.971Z,9.90
2019-05-16T22:08:19.599Z,9.90
2019-05-16T22:10:49.315Z,9.90
2019-05-16T22:13:20.210Z,9.90
2019-05-16T22:15:49.495Z,9.90
2019-05-16T22:18:18.777Z,9.90
2019-05-16T22:20:49.346Z,9.80
2019-05-16T22:23:18.918Z,9.70
2019-05-16T22:25:49.377Z,9.70
2019-05-16T22:28:19.280Z,9.60
2019-05-16T22:30:49.093Z,9.70
2019-05-16T22:33:18.397Z,9.70
2019-05-16T22:35:49.509Z,9.70
2019-05-16T22:38:18.802Z,9.60
2019-05-16T22:40:48.415Z,9.60
2019-05-16T22:43:17.698Z,9.60
2019-05-16T22:45:48.053Z,9.60
2019-05-16T22:48:17.511Z,9.60
2019-05-16T22:50:46.777Z,9.60
2019-05-16T22:53:17.281Z,9.60
2019-05-16T22:55:47.782Z,9.60
2019-05-16T22:58:17.266Z,9.60
2019-05-16T23:00:46.915Z,9.60
2019-05-16T23:03:17.545Z,9.60
2019-05-16T23:05:47.335Z,9.50
2019-05-16T23:08:16.786Z,9.60
2019-05-16T23:10:46.077Z,9.60
2019-05-16T23:13:16.972Z,9.60
2019-05-16T23:15:46.485Z,9.60
2019-05-16T23:18:17.242Z,9.60
2019-05-16T23:20:47.384Z,9.60
2019-05-16T23:23:17.391Z,9.60
2019-05-16T23:25:46.880Z,9.60
2019-05-16T23:28:16.800Z,9.60
2019-05-16T23:30:47.146Z,9.60
2019-05-16T23:33:16.626Z,9.60
2019-05-16T23:35:46.847Z,9.60
2019-05-16T23:38:20.028Z,9.60
2019-05-16T23:40:48.410Z,9.50
2019-05-16T23:43:17.689Z,9.50
2019-05-16T23:45:47.136Z,9.60
2019-05-16T23:48:16.523Z,9.60
2019-05-16T23:50:47.456Z,9.50
2019-05-16T23:53:16.949Z,9.60
2019-05-16T23:55:47.162Z,9.60
2019-05-16T23:58:16.672Z,9.60
